createdAt,value
2023-08-11T00:00:22.484Z,5.40
2023-08-11T00:01:56.642Z,5.70
2023-08-11T00:03:30.484Z,5.00
2023-08-11T00:05:03.913Z,5.53
2023-08-11T00:06:38.200Z,5.70
2023-08-11T00:08:10.479Z,5.80
2023-08-11T00:09:43.705Z,5.40
2023-08-11T00:11:15.823Z,5.70
2023-08-11T00:12:49.769Z,5.70
2023-08-11T00:14:21.952Z,6.07
2023-08-11T00:15:56.791Z,5.33
2023-08-11T00:17:29.062Z,5.40
2023-08-11T00:19:03.555Z,5.53
2023-08-11T00:20:35.738Z,5.73
2023-08-11T00:22:10.670Z,5.60
2023-08-11T00:23:45.060Z,5.50
2023-08-11T00:25:17.301Z,5.90
2023-08-11T00:26:50.535Z,5.63
2023-08-11T00:28:23.679Z,5.90
2023-08-11T00:29:57.377Z,5.37
2023-08-11T00:31:30.639Z,6.13
2023-08-11T00:33:02.885Z,5.33
2023-08-11T00:34:37.574Z,5.80
2023-08-11T00:36:10.692Z,5.60
2023-08-11T00:37:43.982Z,6.03
2023-08-11T00:39:16.950Z,5.47
2023-08-11T00:40:50.152Z,5.50
2023-08-11T00:42:22.332Z,6.37
2023-08-11T00:43:55.514Z,5.60
2023-08-11T00:45:28.693Z,6.33
2023-08-11T00:47:01.296Z,5.77
2023-08-11T00:48:36.407Z,5.53
2023-08-11T00:50:12.056Z,6.00
2023-08-11T00:51:45.304Z,6.10
2023-08-11T00:53:17.552Z,5.93
2023-08-11T00:54:50.699Z,5.90
2023-08-11T00:56:24.753Z,5.80
2023-08-11T00:57:56.971Z,5.83
2023-08-11T00:59:30.367Z,5.87
2023-08-11T01:01:02.684Z,6.50
2023-08-11T01:02:35.993Z,6.30
2023-08-11T01:04:08.624Z,5.80
2023-08-11T01:05:46.448Z,5.73
2023-08-11T01:07:24.731Z,5.70
2023-08-11T01:09:06.764Z,6.87
2023-08-11T01:10:57.686Z,6.20
2023-08-11T01:12:37.180Z,6.50
2023-08-11T01:14:18.116Z,6.07
2023-08-11T01:15:57.199Z,6.50
2023-08-11T01:17:31.959Z,6.70
2023-08-11T01:19:06.924Z,6.37
2023-08-11T01:20:42.269Z,6.77
2023-08-11T01:22:18.282Z,6.20
2023-08-11T01:23:54.147Z,6.37
2023-08-11T01:25:27.001Z,5.73
2023-08-11T01:27:00.542Z,6.40
2023-08-11T01:28:37.702Z,6.03
2023-08-11T01:30:11.603Z,6.53
2023-08-11T01:31:45.234Z,6.60
2023-08-11T01:33:17.429Z,6.40
2023-08-11T01:34:51.791Z,5.90
2023-08-11T01:36:24.925Z,6.20
2023-08-11T01:37:57.064Z,6.10
2023-08-11T01:39:32.422Z,7.13
2023-08-11T01:41:05.832Z,6.40
2023-08-11T01:42:46.558Z,6.33
2023-08-11T01:44:25.737Z,6.50
2023-08-11T01:45:59.391Z,6.30
2023-08-11T01:47:33.185Z,6.17
2023-08-11T01:49:05.858Z,6.20
2023-08-11T01:50:40.072Z,7.07
2023-08-11T01:52:13.130Z,6.77
2023-08-11T01:53:46.311Z,6.80
2023-08-11T01:55:19.904Z,6.27
2023-08-11T01:56:53.991Z,6.40
2023-08-11T01:58:28.715Z,6.47
2023-08-11T02:00:01.109Z,6.67
2023-08-11T02:01:34.412Z,6.53
2023-08-11T02:03:08.575Z,6.90
2023-08-11T02:04:41.908Z,7.20
2023-08-11T02:06:14.066Z,6.30
2023-08-11T02:07:47.789Z,6.53
2023-08-11T02:09:21.488Z,7.20
2023-08-11T02:10:55.050Z,6.80
2023-08-11T02:12:28.449Z,6.17
2023-08-11T02:14:01.579Z,6.83
2023-08-11T02:15:34.722Z,6.33
2023-08-11T02:17:08.782Z,6.33
2023-08-11T02:18:42.269Z,6.30
2023-08-11T02:20:19.439Z,7.20
2023-08-11T02:21:52.784Z,7.50
2023-08-11T02:23:24.988Z,6.90
2023-08-11T02:24:58.242Z,7.57
2023-08-11T02:26:31.937Z,7.50
2023-08-11T02:28:05.919Z,7.37
2023-08-11T02:29:38.380Z,6.90
2023-08-11T02:31:12.058Z,6.93
2023-08-11T02:32:47.125Z,7.87
2023-08-11T02:34:23.014Z,7.37
2023-08-11T02:35:56.220Z,7.43
2023-08-11T02:37:28.339Z,7.80
2023-08-11T02:39:01.452Z,7.30
2023-08-11T02:40:33.798Z,7.73
2023-08-11T02:42:08.488Z,7.40
2023-08-11T02:43:41.824Z,7.63
2023-08-11T02:45:14.095Z,7.50
2023-08-11T02:46:48.107Z,7.23
2023-08-11T02:48:20.930Z,7.30
2023-08-11T02:49:54.120Z,7.83
2023-08-11T02:51:26.327Z,7.60
2023-08-11T02:52:59.562Z,7.90
2023-08-11T02:54:32.180Z,7.60
2023-08-11T02:56:07.822Z,7.43
2023-08-11T02:57:41.642Z,7.77
2023-08-11T02:59:15.158Z,7.27
2023-08-11T03:00:48.908Z,7.50
2023-08-11T03:02:22.183Z,8.13
2023-08-11T03:03:55.509Z,7.50
2023-08-11T03:05:27.939Z,7.63
2023-08-11T03:07:01.762Z,7.40
2023-08-11T03:08:33.966Z,6.80
2023-08-11T03:10:08.659Z,7.83
2023-08-11T03:11:41.497Z,7.23
2023-08-11T03:13:16.103Z,7.80
2023-08-11T03:14:48.303Z,7.17
2023-08-11T03:16:21.431Z,7.27
2023-08-11T03:17:55.884Z,7.17
2023-08-11T03:19:28.154Z,7.33
2023-08-11T03:21:14.148Z,7.37
2023-08-11T03:22:51.997Z,7.67
2023-08-11T03:24:27.983Z,6.57
2023-08-11T03:26:01.144Z,7.63
2023-08-11T03:27:36.431Z,7.37
2023-08-11T03:29:11.341Z,6.70
2023-08-11T03:30:43.783Z,7.20
2023-08-11T03:32:16.951Z,6.93
2023-08-11T03:33:49.478Z,6.70
2023-08-11T03:35:23.280Z,7.33
2023-08-11T03:36:58.177Z,7.13
2023-08-11T03:38:30.362Z,7.67
2023-08-11T03:40:05.409Z,7.53
2023-08-11T03:41:37.655Z,6.90
2023-08-11T03:43:10.909Z,7.37
2023-08-11T03:44:45.139Z,7.60
2023-08-11T03:46:18.581Z,7.37
2023-08-11T03:47:51.086Z,7.70
2023-08-11T03:49:29.640Z,7.33
2023-08-11T03:51:02.584Z,7.50
2023-08-11T03:52:36.649Z,7.60
2023-08-11T03:54:08.870Z,6.87
2023-08-11T03:55:46.931Z,7.30
2023-08-11T03:57:20.319Z,7.83
2023-08-11T03:58:53.453Z,7.20
2023-08-11T04:00:28.829Z,7.00
2023-08-11T04:02:12.426Z,6.90
2023-08-11T04:03:44.985Z,7.33
2023-08-11T04:05:18.693Z,7.57
2023-08-11T04:06:53.159Z,6.80
2023-08-11T04:08:27.308Z,7.50
2023-08-11T04:09:59.766Z,7.90
2023-08-11T04:11:34.035Z,7.57
2023-08-11T04:13:06.357Z,7.00
2023-08-11T04:14:39.479Z,7.50
2023-08-11T04:16:14.392Z,7.23
2023-08-11T04:17:47.130Z,7.20
2023-08-11T04:19:20.421Z,7.20
2023-08-11T04:20:53.602Z,6.67
2023-08-11T04:22:38.048Z,6.80
2023-08-11T04:24:12.515Z,6.67
2023-08-11T04:25:45.059Z,6.73
2023-08-11T04:27:18.521Z,6.93
2023-08-11T04:28:53.179Z,7.10
2023-08-11T04:30:26.339Z,7.77
2023-08-11T04:32:05.606Z,6.87
2023-08-11T04:33:40.818Z,6.53
2023-08-11T04:35:13.174Z,7.10
2023-08-11T04:36:47.595Z,7.17
2023-08-11T04:38:21.187Z,6.50
2023-08-11T04:39:54.482Z,7.53
2023-08-11T04:41:27.640Z,6.70
2023-08-11T04:43:00.983Z,7.27
2023-08-11T04:44:40.245Z,6.57
2023-08-11T04:46:12.533Z,6.90
2023-08-11T04:47:47.122Z,6.93
2023-08-11T04:49:23.790Z,6.10
2023-08-11T04:50:57.896Z,6.30
2023-08-11T04:52:30.200Z,6.30
2023-08-11T04:54:04.297Z,5.83
2023-08-11T04:55:40.996Z,5.80
2023-08-11T04:57:14.660Z,5.50
2023-08-11T04:58:46.884Z,5.77
2023-08-11T05:00:20.755Z,5.63
2023-08-11T05:01:55.683Z,5.17
2023-08-11T05:03:30.686Z,5.33
2023-08-11T05:05:04.547Z,5.70
2023-08-11T05:06:37.928Z,5.10
2023-08-11T05:08:14.656Z,5.67
2023-08-11T05:09:47.796Z,5.80
2023-08-11T05:11:20.933Z,5.47
2023-08-11T05:12:53.257Z,5.90
2023-08-11T05:14:26.489Z,5.87
2023-08-11T05:15:58.684Z,5.77
2023-08-11T05:17:32.168Z,5.20
2023-08-11T05:19:05.945Z,6.00
2023-08-11T05:20:39.116Z,5.90
2023-08-11T05:22:12.503Z,5.67
2023-08-11T05:23:45.717Z,6.20
2023-08-11T05:25:17.971Z,6.10
2023-08-11T05:26:51.177Z,5.97
2023-08-11T05:28:23.351Z,6.20
2023-08-11T05:29:57.370Z,5.00
2023-08-11T05:31:29.599Z,5.40
2023-08-11T05:33:02.791Z,5.67
2023-08-11T05:34:36.729Z,5.97
2023-08-11T05:36:09.962Z,5.73
2023-08-11T05:37:42.415Z,5.73
2023-08-11T05:39:16.006Z,5.13
2023-08-11T05:40:49.444Z,5.43
2023-08-11T05:42:21.805Z,5.27
2023-08-11T05:43:55.212Z,5.53
2023-08-11T05:45:27.369Z,5.60
2023-08-11T05:47:00.751Z,5.37
2023-08-11T05:48:33.909Z,5.67
2023-08-11T05:50:09.957Z,6.30
2023-08-11T05:51:42.114Z,6.10
2023-08-11T05:53:15.346Z,5.07
2023-08-11T05:54:47.520Z,4.97
2023-08-11T05:56:20.639Z,4.80
2023-08-11T05:57:52.826Z,5.43
2023-08-11T05:59:26.419Z,5.10
2023-08-11T06:00:58.684Z,5.37
2023-08-11T06:02:31.963Z,4.80
2023-08-11T06:04:05.099Z,5.30
2023-08-11T06:05:39.958Z,4.70
2023-08-11T06:07:12.316Z,5.53
2023-08-11T06:08:46.943Z,5.47
2023-08-11T06:10:19.076Z,5.30
2023-08-11T06:11:52.245Z,5.00
2023-08-11T06:13:24.393Z,5.13
2023-08-11T06:14:57.561Z,4.70
2023-08-11T06:16:29.797Z,5.10
2023-08-11T06:18:03.006Z,5.20
2023-08-11T06:19:35.228Z,4.80
2023-08-11T06:21:10.675Z,5.20
2023-08-11T06:22:42.794Z,5.20
2023-08-11T06:24:15.963Z,5.27
2023-08-11T06:25:48.211Z,4.57
2023-08-11T06:27:21.371Z,4.77
2023-08-11T06:28:53.953Z,4.83
2023-08-11T06:30:29.134Z,4.83
2023-08-11T06:32:01.478Z,4.97
2023-08-11T06:33:34.835Z,5.30
2023-08-11T06:35:09.351Z,5.17
2023-08-11T06:36:43.413Z,5.03
2023-08-11T06:38:16.662Z,4.70
2023-08-11T06:39:49.948Z,4.40
2023-08-11T06:41:22.089Z,4.80
2023-08-11T06:42:55.280Z,4.83
2023-08-11T06:44:28.263Z,4.80
2023-08-11T06:46:01.677Z,4.77
2023-08-11T06:47:35.591Z,4.63
2023-08-11T06:49:08.754Z,4.60
2023-08-11T06:50:40.933Z,4.80
2023-08-11T06:52:15.505Z,4.67
2023-08-11T06:53:47.690Z,4.20
2023-08-11T06:55:20.847Z,4.37
2023-08-11T06:56:53.054Z,4.10
2023-08-11T06:58:26.687Z,4.40
2023-08-11T07:00:00.206Z,4.30
2023-08-11T07:01:32.454Z,4.90
2023-08-11T07:03:06.399Z,4.33
2023-08-11T07:04:40.724Z,4.33
2023-08-11T07:06:13.915Z,4.40
2023-08-11T07:07:47.510Z,4.33
2023-08-11T07:09:20.635Z,3.87
2023-08-11T07:10:52.769Z,4.07
2023-08-11T07:12:26.021Z,4.13
2023-08-11T07:13:58.361Z,4.17
2023-08-11T07:15:31.518Z,4.07
2023-08-11T07:17:04.582Z,4.03
2023-08-11T07:18:37.875Z,4.07
2023-08-11T07:20:10.403Z,3.93
2023-08-11T07:21:43.730Z,3.63
2023-08-11T07:23:17.367Z,3.33
2023-08-11T07:24:50.539Z,3.70
2023-08-11T07:26:23.702Z,3.40
2023-08-11T07:27:56.304Z,3.53
2023-08-11T07:29:29.752Z,4.10
2023-08-11T07:31:02.152Z,3.53
2023-08-11T07:32:35.252Z,3.43
2023-08-11T07:34:08.481Z,3.73
2023-08-11T07:35:40.592Z,3.07
2023-08-11T07:37:13.776Z,3.47
2023-08-11T07:38:48.418Z,3.13
2023-08-11T07:40:20.964Z,3.30
2023-08-11T07:41:54.163Z,4.30
2023-08-11T07:43:26.317Z,3.50
2023-08-11T07:44:59.436Z,3.40
2023-08-11T07:46:31.810Z,3.50
2023-08-11T07:48:05.557Z,3.37
2023-08-11T07:49:37.815Z,3.30
2023-08-11T07:51:11.291Z,2.93
2023-08-11T07:52:43.465Z,2.80
2023-08-11T07:54:18.767Z,2.77
2023-08-11T07:55:51.987Z,3.27
2023-08-11T07:57:25.072Z,3.40
2023-08-11T07:58:58.210Z,3.17
2023-08-11T08:00:30.752Z,2.70
2023-08-11T08:02:05.103Z,2.83
2023-08-11T08:03:38.461Z,3.00
2023-08-11T08:05:13.138Z,2.83
2023-08-11T08:06:47.289Z,2.83
2023-08-11T08:08:19.462Z,2.73
2023-08-11T08:09:53.974Z,3.03
2023-08-11T08:11:27.214Z,2.83
2023-08-11T08:13:00.306Z,2.97
2023-08-11T08:14:32.458Z,2.80
2023-08-11T08:16:05.799Z,2.97
2023-08-11T08:17:38.827Z,2.80
2023-08-11T08:19:12.614Z,2.70
2023-08-11T08:20:44.816Z,2.37
2023-08-11T08:22:18.335Z,2.67
2023-08-11T08:23:51.694Z,2.83
2023-08-11T08:25:26.284Z,2.37
2023-08-11T08:26:58.467Z,2.90
2023-08-11T08:28:34.340Z,2.80
2023-08-11T08:30:10.547Z,2.80
2023-08-11T08:31:42.851Z,2.53
2023-08-11T08:33:16.175Z,2.77
2023-08-11T08:34:49.384Z,2.33
2023-08-11T08:36:22.505Z,2.60
2023-08-11T08:37:54.649Z,2.43
2023-08-11T08:39:27.837Z,2.40
2023-08-11T08:41:02.515Z,2.50
2023-08-11T08:42:35.278Z,2.27
2023-08-11T08:44:08.602Z,2.40
2023-08-11T08:45:44.802Z,2.40
2023-08-11T08:47:19.183Z,2.40
2023-08-11T08:48:57.969Z,2.53
2023-08-11T08:50:31.304Z,2.70
2023-08-11T08:52:05.971Z,2.03
2023-08-11T08:53:39.630Z,2.50
2023-08-11T08:55:13.811Z,2.37
2023-08-11T08:56:47.534Z,2.10
2023-08-11T08:58:20.721Z,2.17
2023-08-11T08:59:53.265Z,2.10
2023-08-11T09:01:27.528Z,2.30
2023-08-11T09:03:01.362Z,2.30
2023-08-11T09:04:35.155Z,2.07
2023-08-11T09:06:08.836Z,2.43
2023-08-11T09:07:41.042Z,2.10
2023-08-11T09:09:14.889Z,2.30
2023-08-11T09:10:47.073Z,1.90
2023-08-11T09:12:21.610Z,2.17
2023-08-11T09:13:54.064Z,1.67
2023-08-11T09:15:27.414Z,2.03
2023-08-11T09:17:02.214Z,2.10
2023-08-11T09:18:34.524Z,1.70
2023-08-11T09:20:11.220Z,2.00
2023-08-11T09:21:44.373Z,2.00
2023-08-11T09:23:18.834Z,1.80
2023-08-11T09:24:51.998Z,1.63
2023-08-11T09:26:25.555Z,1.90
2023-08-11T09:28:00.641Z,2.10
2023-08-11T09:29:35.511Z,1.73
2023-08-11T09:31:08.774Z,2.00
2023-08-11T09:32:41.170Z,1.97
2023-08-11T09:34:16.296Z,1.67
2023-08-11T09:35:49.783Z,1.73
2023-08-11T09:37:22.110Z,1.77
2023-08-11T09:38:55.930Z,2.10
2023-08-11T09:40:29.251Z,1.83
2023-08-11T09:42:02.758Z,2.13
2023-08-11T09:43:36.632Z,2.00
2023-08-11T09:45:10.975Z,2.17
2023-08-11T09:46:44.168Z,2.00
2023-08-11T09:48:17.414Z,2.20
2023-08-11T09:49:49.752Z,2.10
2023-08-11T09:51:23.384Z,2.13
2023-08-11T09:52:59.917Z,2.15
2023-08-11T09:54:32.882Z,1.88
2023-08-11T09:56:06.602Z,1.92
2023-08-11T09:57:40.311Z,1.90
2023-08-11T09:59:18.312Z,2.00
2023-08-11T10:00:57.016Z,1.98
2023-08-11T10:02:34.764Z,1.60
2023-08-11T10:04:11.824Z,2.10
2023-08-11T10:05:46.631Z,2.35
2023-08-11T10:07:20.990Z,2.03
2023-08-11T10:08:55.240Z,2.45
2023-08-11T10:10:29.318Z,2.40
2023-08-11T10:12:01.853Z,2.20
2023-08-11T10:13:35.869Z,2.10
2023-08-11T10:15:11.770Z,2.58
2023-08-11T10:16:46.650Z,2.10
2023-08-11T10:18:19.529Z,2.30
2023-08-11T10:19:53.370Z,2.38
2023-08-11T10:21:26.644Z,2.42
2023-08-11T10:23:00.309Z,2.10
2023-08-11T10:24:34.122Z,2.40
2023-08-11T10:26:08.047Z,2.00
2023-08-11T10:27:40.859Z,2.22
2023-08-11T10:29:14.159Z,2.10
2023-08-11T10:30:55.758Z,1.88
2023-08-11T10:32:33.702Z,1.92
2023-08-11T10:34:10.888Z,2.40
2023-08-11T10:35:50.573Z,2.10
2023-08-11T10:37:25.946Z,2.15
2023-08-11T10:39:03.011Z,2.28
2023-08-11T10:40:37.192Z,2.30
2023-08-11T10:42:12.810Z,2.22
2023-08-11T10:43:50.072Z,2.00
2023-08-11T10:45:26.659Z,2.50
2023-08-11T10:47:06.087Z,2.20
2023-08-11T10:48:38.281Z,2.38
2023-08-11T10:50:11.737Z,2.13
2023-08-11T10:51:45.572Z,2.40
2023-08-11T10:53:21.703Z,2.35
2023-08-11T10:54:55.290Z,2.10
2023-08-11T10:56:33.244Z,2.38
2023-08-11T10:58:19.246Z,2.13
2023-08-11T10:59:52.645Z,2.10
2023-08-11T11:01:25.039Z,2.38
2023-08-11T11:02:59.916Z,2.20
2023-08-11T11:04:34.690Z,2.47
2023-08-11T11:06:07.576Z,2.50
2023-08-11T11:07:40.683Z,2.08
2023-08-11T11:09:13.363Z,2.05
2023-08-11T11:10:50.553Z,1.83
2023-08-11T11:12:24.214Z,2.10
2023-08-11T11:13:56.300Z,1.95
2023-08-11T11:15:31.087Z,2.17
2023-08-11T11:17:04.663Z,2.00
2023-08-11T11:18:41.037Z,2.17
2023-08-11T11:20:15.620Z,2.15
2023-08-11T11:21:48.924Z,1.98
2023-08-11T11:23:21.146Z,2.10
2023-08-11T11:24:54.292Z,1.80
2023-08-11T11:26:27.964Z,1.90
2023-08-11T11:28:01.169Z,2.00
2023-08-11T11:29:33.941Z,2.30
2023-08-11T11:31:07.639Z,1.75
2023-08-11T11:32:41.651Z,1.83
2023-08-11T11:34:15.961Z,2.05
2023-08-11T11:35:49.342Z,1.75
2023-08-11T11:37:22.738Z,1.95
2023-08-11T11:38:55.294Z,1.38
2023-08-11T11:40:30.980Z,1.70
2023-08-11T11:42:08.088Z,1.80
2023-08-11T11:43:41.921Z,2.30
2023-08-11T11:45:15.984Z,2.10
2023-08-11T11:46:48.531Z,2.00
2023-08-11T11:48:22.582Z,2.10
2023-08-11T11:50:01.337Z,2.10
2023-08-11T11:51:34.861Z,1.60
2023-08-11T11:53:07.292Z,1.50
2023-08-11T11:54:40.920Z,1.70
2023-08-11T11:56:15.246Z,1.48
2023-08-11T11:57:48.883Z,1.92
2023-08-11T11:59:22.415Z,1.60
2023-08-11T12:00:56.961Z,1.73
2023-08-11T12:02:30.333Z,1.50
2023-08-11T12:04:05.023Z,1.90
2023-08-11T12:05:39.736Z,1.80
2023-08-11T12:07:29.860Z,1.90
2023-08-11T12:09:05.409Z,1.80
2023-08-11T12:10:37.699Z,1.75
2023-08-11T12:12:11.195Z,1.90
2023-08-11T12:13:47.696Z,2.05
2023-08-11T12:15:21.927Z,1.75
2023-08-11T12:16:54.186Z,1.70
2023-08-11T12:18:30.557Z,1.70
2023-08-11T12:20:05.024Z,1.80
2023-08-11T12:21:39.561Z,1.80
2023-08-11T12:23:11.871Z,1.63
2023-08-11T12:24:45.322Z,2.03
2023-08-11T12:26:18.498Z,1.52
2023-08-11T12:27:55.112Z,1.75
2023-08-11T12:29:28.306Z,1.95
2023-08-11T12:31:00.493Z,1.85
2023-08-11T12:32:33.709Z,1.73
2023-08-11T12:34:07.555Z,2.20
2023-08-11T12:35:39.730Z,1.75
2023-08-11T12:37:15.424Z,1.60
2023-08-11T12:38:48.932Z,2.00
2023-08-11T12:40:23.274Z,1.67
2023-08-11T12:41:56.442Z,1.70
2023-08-11T12:43:29.582Z,1.90
2023-08-11T12:45:01.777Z,1.77
2023-08-11T12:46:34.960Z,1.70
2023-08-11T12:48:08.010Z,1.90
2023-08-11T12:49:41.172Z,1.70
2023-08-11T12:51:14.339Z,1.60
2023-08-11T12:52:47.805Z,1.90
2023-08-11T12:54:21.098Z,1.90
2023-08-11T12:55:53.240Z,1.90
2023-08-11T12:57:26.465Z,1.75
2023-08-11T12:58:58.622Z,2.08
2023-08-11T13:00:32.590Z,1.70
2023-08-11T13:02:05.034Z,1.77
2023-08-11T13:03:38.274Z,1.58
2023-08-11T13:05:10.457Z,1.50
2023-08-11T13:06:43.605Z,1.63
2023-08-11T13:08:18.157Z,1.73
2023-08-11T13:09:50.319Z,1.65
2023-08-11T13:11:24.037Z,1.60
2023-08-11T13:12:57.266Z,1.75
2023-08-11T13:14:29.388Z,1.80
2023-08-11T13:16:02.659Z,1.83
2023-08-11T13:17:35.054Z,1.85
2023-08-11T13:19:08.196Z,1.80
2023-08-11T13:20:40.374Z,1.70
2023-08-11T13:22:13.566Z,1.67
2023-08-11T13:23:47.152Z,1.70
2023-08-11T13:25:20.437Z,1.40
2023-08-11T13:26:53.208Z,1.70
2023-08-11T13:28:26.327Z,1.58
2023-08-11T13:29:58.543Z,1.70
2023-08-11T13:31:31.971Z,1.70
2023-08-11T13:33:06.161Z,1.65
2023-08-11T13:34:39.363Z,1.80
2023-08-11T13:36:11.476Z,1.67
2023-08-11T13:37:44.682Z,1.80
2023-08-11T13:39:19.411Z,1.70
2023-08-11T13:40:52.563Z,1.60
2023-08-11T13:42:25.064Z,1.98
2023-08-11T13:43:58.184Z,1.50
2023-08-11T13:45:31.415Z,1.90
2023-08-11T13:47:04.832Z,1.75
2023-08-11T13:48:37.287Z,1.67
2023-08-11T13:50:11.281Z,1.80
2023-08-11T13:51:43.529Z,1.90
2023-08-11T13:53:16.663Z,1.50
2023-08-11T13:54:58.626Z,1.55
2023-08-11T13:56:34.567Z,1.30
2023-08-11T13:58:06.781Z,1.52
2023-08-11T13:59:39.909Z,1.80
2023-08-11T14:01:12.114Z,1.90
2023-08-11T14:02:45.468Z,1.95
2023-08-11T14:04:19.502Z,1.80
2023-08-11T14:05:51.720Z,1.65
2023-08-11T14:07:30.499Z,1.73
2023-08-11T14:09:07.083Z,1.75
2023-08-11T14:10:40.629Z,1.60
2023-08-11T14:12:15.376Z,1.80
2023-08-11T14:13:47.513Z,1.55
2023-08-11T14:15:20.681Z,1.67
2023-08-11T14:16:53.799Z,1.80
2023-08-11T14:18:25.986Z,1.85
2023-08-11T14:20:04.376Z,1.48
2023-08-11T14:21:36.527Z,1.42
2023-08-11T14:23:09.965Z,1.60
2023-08-11T14:24:42.109Z,1.50
2023-08-11T14:26:16.578Z,1.50
2023-08-11T14:27:49.908Z,1.65
2023-08-11T14:29:23.063Z,1.65
2023-08-11T14:30:56.012Z,1.60
2023-08-11T14:32:29.470Z,1.70
2023-08-11T14:34:04.175Z,1.80
2023-08-11T14:35:40.598Z,1.85
2023-08-11T14:37:15.884Z,1.88
2023-08-11T14:38:50.429Z,1.70
2023-08-11T14:40:22.841Z,1.30
2023-08-11T14:41:57.363Z,1.70
2023-08-11T14:43:30.896Z,1.70
2023-08-11T14:45:04.381Z,1.70
2023-08-11T14:46:37.566Z,1.57
2023-08-11T14:48:09.681Z,1.80
2023-08-11T14:49:43.053Z,1.80
2023-08-11T14:51:16.231Z,1.90
2023-08-11T14:52:48.396Z,1.60
2023-08-11T14:54:21.672Z,1.67
2023-08-11T14:55:53.813Z,1.97
2023-08-11T14:57:28.423Z,1.80
2023-08-11T14:59:01.722Z,1.60
2023-08-11T15:00:33.969Z,1.80
2023-08-11T15:02:07.500Z,1.70
2023-08-11T15:03:42.496Z,1.63
2023-08-11T15:05:14.774Z,1.70
2023-08-11T15:06:48.084Z,1.70
2023-08-11T15:08:21.227Z,2.03
2023-08-11T15:09:53.389Z,1.60
2023-08-11T15:11:26.977Z,1.67
2023-08-11T15:13:01.145Z,1.70
2023-08-11T15:14:34.352Z,2.63
2023-08-11T15:16:06.548Z,2.00
2023-08-11T15:17:39.774Z,1.60
2023-08-11T15:19:11.988Z,1.70
2023-08-11T15:20:45.135Z,2.10
2023-08-11T15:22:17.496Z,2.00
2023-08-11T15:23:50.647Z,1.60
2023-08-11T15:25:23.900Z,1.90
2023-08-11T15:26:56.052Z,1.70
2023-08-11T15:28:30.710Z,2.10
2023-08-11T15:30:02.995Z,1.50
2023-08-11T15:31:36.410Z,1.83
2023-08-11T15:33:08.640Z,1.60
2023-08-11T15:34:42.156Z,3.70
2023-08-11T15:36:14.442Z,2.17
2023-08-11T15:37:47.588Z,2.30
2023-08-11T15:39:19.793Z,1.83
2023-08-11T15:40:52.894Z,2.03
2023-08-11T15:42:25.235Z,2.10
2023-08-11T15:43:59.799Z,1.70
2023-08-11T15:45:31.989Z,1.80
2023-08-11T15:47:05.234Z,1.60
2023-08-11T15:48:37.747Z,1.90
2023-08-11T15:50:11.449Z,1.57
2023-08-11T15:51:43.610Z,1.77
2023-08-11T15:53:16.689Z,1.77
2023-08-11T15:54:48.807Z,1.70
2023-08-11T15:56:22.036Z,1.67
2023-08-11T15:57:54.130Z,1.90
2023-08-11T15:59:28.628Z,1.70
2023-08-11T16:01:03.614Z,1.40
2023-08-11T16:02:37.208Z,2.10
2023-08-11T16:04:09.846Z,1.67
2023-08-11T16:05:43.179Z,1.60
2023-08-11T16:07:15.355Z,2.10
2023-08-11T16:08:48.522Z,1.77
2023-08-11T16:10:20.647Z,1.53
2023-08-11T16:11:55.219Z,1.43
2023-08-11T16:13:27.347Z,1.70
2023-08-11T16:15:01.837Z,1.97
2023-08-11T16:16:34.033Z,2.00
2023-08-11T16:18:09.027Z,1.80
2023-08-11T16:19:42.259Z,1.50
2023-08-11T16:21:14.711Z,1.87
2023-08-11T16:22:47.811Z,1.60
2023-08-11T16:24:20.298Z,1.70
2023-08-11T16:25:53.388Z,1.70
2023-08-11T16:27:28.469Z,1.93
2023-08-11T16:29:01.886Z,1.80
2023-08-11T16:30:35.467Z,1.77
2023-08-11T16:32:09.201Z,2.30
2023-08-11T16:33:41.714Z,1.60
2023-08-11T16:35:14.846Z,1.80
2023-08-11T16:36:46.979Z,1.90
2023-08-11T16:38:20.070Z,1.63
2023-08-11T16:39:53.181Z,1.77
2023-08-11T16:41:26.324Z,1.90
2023-08-11T16:42:59.037Z,1.70
2023-08-11T16:44:32.169Z,1.70
2023-08-11T16:46:05.722Z,1.80
2023-08-11T16:47:38.932Z,1.80
2023-08-11T16:49:12.102Z,1.73
2023-08-11T16:50:45.886Z,2.00
2023-08-11T16:52:18.997Z,2.03
2023-08-11T16:53:52.117Z,2.10
2023-08-11T16:55:24.550Z,2.40
2023-08-11T16:56:58.942Z,2.13
2023-08-11T16:58:31.193Z,2.00
2023-08-11T17:00:06.094Z,1.80
2023-08-11T17:01:39.701Z,2.00
2023-08-11T17:03:13.132Z,1.73
2023-08-11T17:04:45.465Z,2.70
2023-08-11T17:06:20.438Z,2.23
2023-08-11T17:07:52.754Z,2.17
2023-08-11T17:09:25.908Z,2.00
2023-08-11T17:10:59.397Z,2.27
2023-08-11T17:12:31.980Z,2.10
2023-08-11T17:14:05.306Z,2.10
2023-08-11T17:15:37.583Z,2.87
2023-08-11T17:17:12.166Z,2.47
2023-08-11T17:18:44.578Z,2.40
2023-08-11T17:20:18.063Z,2.20
2023-08-11T17:21:51.624Z,2.10
2023-08-11T17:23:23.766Z,2.20
2023-08-11T17:24:58.910Z,2.00
2023-08-11T17:26:32.317Z,2.07
2023-08-11T17:28:05.219Z,2.10
2023-08-11T17:29:38.409Z,1.93
2023-08-11T17:31:11.565Z,2.00
2023-08-11T17:32:45.178Z,2.30
2023-08-11T17:34:18.282Z,2.17
2023-08-11T17:35:50.952Z,2.13
2023-08-11T17:37:24.249Z,2.50
2023-08-11T17:38:57.822Z,2.10
2023-08-11T17:40:30.972Z,1.73
2023-08-11T17:42:03.935Z,1.90
2023-08-11T17:43:37.060Z,2.20
2023-08-11T17:45:10.177Z,2.23
2023-08-11T17:46:43.443Z,2.40
2023-08-11T17:48:17.034Z,3.30
2023-08-11T17:49:50.773Z,4.73
2023-08-11T17:51:23.958Z,6.00
2023-08-11T17:52:57.190Z,5.47
2023-08-11T17:54:30.382Z,5.87
2023-08-11T17:56:03.087Z,5.97
2023-08-11T17:57:36.884Z,6.80
2023-08-11T17:59:09.074Z,6.93
2023-08-11T18:00:43.617Z,6.47
2023-08-11T18:02:16.750Z,6.87
2023-08-11T18:03:50.510Z,6.80
2023-08-11T18:05:23.610Z,8.20
2023-08-11T18:06:56.750Z,7.03
2023-08-11T18:08:29.851Z,7.00
2023-08-11T18:10:03.406Z,6.57
2023-08-11T18:11:36.220Z,6.40
2023-08-11T18:13:09.459Z,6.83
2023-08-11T18:14:53.631Z,5.57
2023-08-11T18:18:22.215Z,4.10
2023-08-11T18:19:56.373Z,4.67
2023-08-11T18:21:29.524Z,4.10
2023-08-11T18:23:02.071Z,4.47
2023-08-11T18:24:35.210Z,4.30
2023-08-11T18:26:07.339Z,4.07
2023-08-11T18:27:41.529Z,3.93
2023-08-11T18:29:15.715Z,3.77
2023-08-11T18:30:49.445Z,4.20
2023-08-11T18:32:22.722Z,4.57
2023-08-11T18:33:55.852Z,3.93
2023-08-11T18:35:29.572Z,3.73
2023-08-11T18:37:02.679Z,3.43
2023-08-11T18:38:35.071Z,4.40
2023-08-11T18:40:09.844Z,4.30
2023-08-11T18:41:42.004Z,5.23
2023-08-11T18:43:15.190Z,3.87
2023-08-11T18:44:47.349Z,3.80
2023-08-11T18:46:20.500Z,3.73
2023-08-11T18:47:54.449Z,3.10
2023-08-11T18:49:28.354Z,3.30
2023-08-11T18:51:02.498Z,2.97
2023-08-11T18:52:35.796Z,2.90
2023-08-11T18:54:08.496Z,3.30
2023-08-11T18:55:41.710Z,3.10
2023-08-11T18:57:13.926Z,2.83
2023-08-11T18:58:47.661Z,2.90
2023-08-11T19:00:19.790Z,3.07
2023-08-11T19:01:52.929Z,3.10
2023-08-11T19:03:25.157Z,3.33
2023-08-11T19:04:58.344Z,3.33
2023-08-11T19:06:32.931Z,3.20
2023-08-11T19:08:08.046Z,3.53
2023-08-11T19:09:42.941Z,3.20
2023-08-11T19:11:17.420Z,5.43
2023-08-11T19:12:50.821Z,7.63
2023-08-11T19:14:23.928Z,7.80
2023-08-11T19:15:56.603Z,5.63
2023-08-11T19:17:29.844Z,4.53
2023-08-11T19:19:02.028Z,5.77
2023-08-11T19:20:35.283Z,5.20
2023-08-11T19:22:09.062Z,4.03
2023-08-11T19:23:43.788Z,4.00
2023-08-11T19:25:17.089Z,3.57
2023-08-11T19:26:49.366Z,3.80
2023-08-11T19:28:22.488Z,3.40
2023-08-11T19:29:54.727Z,3.63
2023-08-11T19:31:27.951Z,3.67
2023-08-11T19:33:00.269Z,3.90
2023-08-11T19:34:33.441Z,4.23
2023-08-11T19:36:05.984Z,4.10
2023-08-11T19:37:40.490Z,4.70
2023-08-11T19:39:12.629Z,4.30
2023-08-11T19:40:45.963Z,3.90
2023-08-11T19:42:18.390Z,4.50
2023-08-11T19:43:51.531Z,4.90
2023-08-11T19:45:23.688Z,4.50
2023-08-11T19:46:56.989Z,5.60
2023-08-11T19:48:29.391Z,4.77
2023-08-11T19:50:02.470Z,4.97
2023-08-11T19:51:34.732Z,5.50
2023-08-11T19:53:09.204Z,5.13
2023-08-11T19:54:42.594Z,4.20
2023-08-11T19:56:14.745Z,5.07
2023-08-11T19:57:47.902Z,7.27
2023-08-11T19:59:19.989Z,9.73
2023-08-11T20:00:53.438Z,6.90
2023-08-11T20:02:27.156Z,4.47
2023-08-11T20:04:00.275Z,5.00
2023-08-11T20:05:32.399Z,3.83
2023-08-11T20:07:05.955Z,4.40
2023-08-11T20:08:39.482Z,4.17
2023-08-11T20:10:12.925Z,4.40
2023-08-11T20:11:45.074Z,4.37
2023-08-11T20:13:19.476Z,4.70
2023-08-11T20:14:51.632Z,4.80
2023-08-11T20:16:24.884Z,4.60
2023-08-11T20:17:57.086Z,4.63
2023-08-11T20:19:30.304Z,4.53
2023-08-11T20:21:02.457Z,4.63
2023-08-11T20:22:35.583Z,4.10
2023-08-11T20:24:09.653Z,4.57
2023-08-11T20:25:42.890Z,3.97
2023-08-11T20:27:15.088Z,3.60
2023-08-11T20:28:48.219Z,4.27
2023-08-11T20:30:20.784Z,4.40
2023-08-11T20:31:56.938Z,4.33
2023-08-11T20:33:29.541Z,4.57
2023-08-11T20:35:05.056Z,4.07
2023-08-11T20:36:37.234Z,3.77
2023-08-11T20:38:11.036Z,3.87
2023-08-11T20:39:44.566Z,3.53
2023-08-11T20:41:17.824Z,4.50
2023-08-11T20:42:50.025Z,4.73
2023-08-11T20:44:24.172Z,4.20
2023-08-11T20:45:57.298Z,4.50
2023-08-11T20:47:29.534Z,4.50
2023-08-11T20:49:02.682Z,5.20